.
WxDataArchive / Data Records for 2011-12-19
2011-12-18 December 2011 2011-12-20

Data Records for Monday, 19 December 2011

Time	Temp	Chill	HIndex	Humid	Dewpt	 Wind 	HiWind	WindDir	Rain 	Barom 
-----	----	-----	------	-----	-----	------	------	-------	-----	----- 
00:00	38.6	38.6	38.6	77	32.0	1	5	248	0.00	30.026 
00:05	38.5	38.5	38.5	77	31.9	1	5	248	0.00	30.026 
00:10	38.5	38.5	38.5	77	31.9	1	4	248	0.00	30.026 
00:15	38.5	38.5	38.5	77	31.9	1	6	248	0.00	30.018 
00:20	38.5	38.5	38.5	77	31.9	1	6	248	0.00	30.018 
00:25	38.5	38.5	38.5	77	31.9	2	5	248	0.00	30.018 
00:30	38.5	38.5	38.5	77	31.9	1	6	248	0.00	30.015 
00:35	38.5	38.5	38.5	77	31.9	1	5	248	0.00	30.015 
00:40	38.3	38.3	38.3	77	31.7	1	6	248	0.00	30.015 
00:45	38.5	38.5	38.5	77	31.9	1	6	248	0.00	30.015 
00:50	38.5	38.5	38.5	77	31.9	1	3	248	0.00	30.015 
00:55	38.3	38.3	38.3	78	32.1	1	4	248	0.00	30.015 
01:00	38.5	38.5	38.5	78	32.2	1	3	248	0.00	30.012 
01:05	38.5	38.5	38.5	77	31.9	1	3	225	0.00	30.012 
01:10	38.5	38.5	38.5	77	31.9	1	5	248	0.00	30.012 
01:15	38.5	38.5	38.5	78	32.2	1	5	248	0.00	30.000 
01:20	38.6	38.6	38.6	77	32.0	2	7	248	0.00	30.000 
01:25	38.8	38.8	38.8	77	32.2	2	5	248	0.00	30.000 
01:30	38.8	38.8	38.8	77	32.2	2	5	248	0.00	29.996 
01:35	38.8	38.8	38.8	77	32.2	1	6	225	0.00	29.996 
01:40	38.9	38.9	38.9	77	32.3	2	6	248	0.00	29.996 
01:45	38.9	38.9	38.9	77	32.3	2	6	248	0.00	29.992 
01:50	38.9	38.9	38.9	77	32.3	1	4	248	0.00	29.992 
01:55	38.8	38.8	38.8	77	32.2	1	4	248	0.00	29.992 
02:00	38.8	38.8	38.8	77	32.2	1	5	248	0.00	29.989 
02:05	38.8	38.8	38.8	77	32.2	1	4	248	0.00	29.989 
02:10	38.9	38.9	38.9	77	32.3	1	4	248	0.00	29.989 
02:15	39.1	39.1	39.1	77	32.5	1	3	248	0.00	29.981 
02:20	39.2	39.2	39.2	77	32.6	1	5	248	0.00	29.981 
02:25	39.3	39.3	39.3	77	32.7	2	6	248	0.00	29.981 
02:30	39.5	39.5	39.5	77	32.9	1	5	248	0.00	29.981 
02:35	39.6	39.6	39.6	76	32.7	1	5	248	0.00	29.981 
02:40	39.6	39.6	39.6	76	32.7	1	7	225	0.00	29.981 
02:45	39.6	39.6	39.6	76	32.7	1	4	248	0.00	29.982 
02:50	39.8	39.8	39.8	76	32.9	2	6	248	0.00	29.982 
02:55	39.8	39.8	39.8	76	32.9	1	5	248	0.00	29.982 
03:00	39.9	39.9	39.9	75	32.6	2	6	248	0.00	29.979 
03:05	40.1	40.1	40.1	75	32.8	2	4	248	0.00	29.979 
03:10	40.2	40.2	40.2	75	32.9	1	5	248	0.00	29.979 
03:15	40.2	40.2	40.2	75	32.9	1	4	270	0.00	29.978 
03:20	40.3	40.3	40.3	74	32.7	3	7	270	0.00	29.978 
03:25	40.5	40.5	40.5	74	32.9	2	5	248	0.00	29.978 
03:30	40.6	40.6	40.6	74	33.0	2	6	248	0.00	29.975 
03:35	40.8	40.8	40.8	73	32.8	2	12	248	0.00	29.975 
03:40	40.9	40.9	40.9	73	32.9	2	4	248	0.00	29.975 
03:45	41.1	41.1	41.1	73	33.1	2	5	248	0.00	29.965 
03:50	41.2	41.2	41.2	72	32.9	2	12	248	0.00	29.965 
03:55	41.3	41.3	41.3	71	32.6	2	6	248	0.00	29.965 
04:00	41.3	41.3	41.3	71	32.6	2	6	248	0.00	29.960 
04:05	41.5	41.5	41.5	71	32.8	2	7	248	0.00	29.960 
04:10	41.5	41.5	41.5	70	32.5	2	9	248	0.00	29.960 
04:15	41.6	41.6	41.6	70	32.6	2	6	248	0.00	29.957 
04:20	41.6	41.6	41.6	70	32.6	2	6	248	0.00	29.957 
04:25	41.8	41.8	41.8	70	32.7	2	4	270	0.00	29.957 
04:30	41.8	41.8	41.8	69	32.4	2	6	248	0.00	29.951 
04:35	41.8	41.8	41.8	69	32.4	2	5	248	0.00	29.951 
04:40	41.9	41.9	41.9	69	32.5	2	6	248	0.00	29.951 
04:45	41.9	41.9	41.9	69	32.5	2	5	248	0.00	29.950 
04:50	42.1	42.1	42.1	69	32.7	3	6	248	0.00	29.950 
04:55	42.1	42.1	42.1	69	32.7	2	5	248	0.00	29.950 
05:00	42.2	42.2	42.2	69	32.8	2	4	248	0.00	29.946 
05:05	42.2	42.2	42.2	68	32.4	3	9	248	0.00	29.946 
05:10	42.2	42.2	42.2	68	32.4	3	6	248	0.00	29.946 
05:15	42.3	42.3	42.3	68	32.5	2	7	248	0.00	29.948 
05:20	42.3	42.3	42.3	68	32.5	2	5	270	0.00	29.948 
05:25	42.5	42.5	42.5	68	32.7	2	5	270	0.00	29.948 
05:30	42.5	42.5	42.5	68	32.7	3	7	248	0.00	29.947 
05:35	42.6	42.6	42.6	68	32.8	2	6	248	0.00	29.947 
05:40	42.6	42.6	42.6	68	32.8	2	6	248	0.00	29.947 
05:45	42.6	42.6	42.6	68	32.8	2	7	248	0.00	29.947 
05:50	42.6	42.6	42.6	68	32.8	2	5	248	0.00	29.947 
05:55	42.8	42.8	42.8	68	33.0	2	4	248	0.00	29.947 
06:00	42.8	42.8	42.8	69	33.3	1	3	248	0.00	29.946 
06:05	42.8	42.8	42.8	69	33.3	1	5	248	0.00	29.946 
06:10	42.8	42.8	42.8	69	33.3	2	4	248	0.00	29.946 
06:15	42.9	42.9	42.9	69	33.4	1	5	248	0.00	29.946 
06:20	43.1	43.1	43.1	70	34.0	1	5	248	0.00	29.946 
06:25	43.1	43.1	43.1	70	34.0	1	4	248	0.00	29.946 
06:30	43.2	43.2	43.2	71	34.4	2	7	248	0.00	29.947 
06:35	43.3	43.3	43.3	71	34.5	2	4	248	0.00	29.947 
06:40	43.5	43.5	43.5	72	35.1	2	7	248	0.00	29.947 
06:45	43.6	43.6	43.6	72	35.2	3	6	270	0.00	29.949 
06:50	43.6	43.6	43.6	72	35.2	2	6	248	0.00	29.949 
06:55	43.8	43.8	43.8	72	35.4	2	5	248	0.00	29.949 
07:00	43.8	43.8	43.8	72	35.4	2	6	248	0.00	29.954 
07:05	43.8	43.8	43.8	72	35.4	2	6	248	0.00	29.954 
07:10	43.8	43.8	43.8	72	35.4	2	6	248	0.00	29.954 
07:15	43.8	43.8	43.8	71	35.0	2	6	248	0.00	29.956 
07:20	43.9	43.9	43.9	71	35.1	2	8	248	0.00	29.956 
07:25	43.8	43.8	43.8	70	34.7	2	5	248	0.00	29.956 
07:30	43.9	43.9	43.9	70	34.8	3	5	248	0.00	29.956 
07:35	43.9	43.9	43.9	70	34.8	2	6	248	0.00	29.956 
07:40	43.9	43.9	43.9	69	34.4	2	7	248	0.00	29.956 
07:45	43.9	43.9	43.9	69	34.4	3	7	248	0.00	29.960 
07:50	44.1	44.1	44.1	69	34.6	3	10	248	0.00	29.960 
07:55	44.1	44.1	44.1	69	34.6	2	9	248	0.00	29.960 
08:00	44.1	44.1	44.1	69	34.6	3	6	248	0.00	29.958 
08:05	44.1	44.1	44.1	69	34.6	2	7	248	0.00	29.958 
08:10	44.2	44.2	44.2	69	34.7	3	7	248	0.00	29.958 
08:15	44.2	44.2	44.2	69	34.7	2	5	225	0.00	29.960 
08:20	44.2	44.2	44.2	70	35.0	3	10	248	0.00	29.960 
08:25	44.2	44.2	44.2	70	35.0	3	7	248	0.00	29.960 
08:30	44.2	44.2	44.2	70	35.0	2	4	248	0.00	29.965 
08:35	44.2	44.2	44.2	70	35.0	2	6	248	0.00	29.965 
08:40	44.2	44.2	44.2	71	35.4	2	6	248	0.00	29.965 
08:45	44.2	44.2	44.2	71	35.4	2	9	248	0.00	29.968 
08:50	44.2	44.2	44.2	71	35.4	2	5	248	0.00	29.968 
08:55	44.3	44.3	44.3	71	35.5	2	5	248	0.00	29.968 
09:00	44.3	44.3	44.3	72	35.9	2	6	248	0.00	29.970 
09:05	44.5	44.5	44.5	72	36.0	2	6	248	0.00	29.970 
09:10	44.5	44.5	44.5	72	36.0	2	4	248	0.00	29.970 
09:15	44.5	44.5	44.5	73	36.4	1	4	248	0.00	29.969 
09:20	44.6	44.6	44.6	73	36.5	2	5	270	0.00	29.969 
09:25	44.6	44.6	44.6	73	36.5	2	9	248	0.00	29.969 
09:30	44.8	44.8	44.8	73	36.7	2	6	248	0.00	29.975 
09:35	44.8	44.8	44.8	74	37.0	2	6	248	0.00	29.975 
09:40	44.9	44.9	44.9	74	37.1	2	6	248	0.00	29.975 
09:45	44.9	44.9	44.9	74	37.1	2	6	248	0.00	29.976 
09:50	45.1	45.1	45.1	74	37.3	2	7	248	0.00	29.976 
09:55	45.1	45.1	45.1	75	37.7	3	5	248	0.00	29.976 
10:00	45.2	45.2	45.2	75	37.8	2	6	248	0.00	29.978 
10:05	45.4	45.4	45.4	75	37.9	2	6	248	0.00	29.978 
10:10	45.5	45.5	45.5	75	38.0	2	6	248	0.00	29.978 
10:15	45.7	45.7	45.7	75	38.2	3	6	248	0.00	29.982 
10:20	45.7	45.7	45.7	75	38.2	2	6	248	0.00	29.982 
10:25	45.8	45.8	45.8	75	38.3	2	6	248	0.00	29.982 
10:30	46.0	46.0	46.0	75	38.5	2	6	248	0.00	29.985 
10:35	46.1	46.1	46.1	75	38.6	2	6	248	0.00	29.985 
10:40	46.2	46.2	46.2	75	38.7	1	5	248	0.00	29.985 
10:45	46.4	46.4	46.4	75	38.9	2	5	225	0.00	29.988 
10:50	46.5	46.5	46.5	74	38.7	1	5	248	0.00	29.988 
10:55	46.5	46.5	46.5	74	38.7	3	11	248	0.00	29.988 
11:00	46.7	46.7	46.7	74	38.9	1	4	270	0.00	29.988 
11:05	46.8	46.8	46.8	74	39.0	2	5	270	0.00	29.988 
11:10	47.0	47.0	47.0	74	39.1	2	7	248	0.00	29.988 
11:15	47.1	47.1	47.1	74	39.2	3	6	248	0.00	29.982 
11:20	47.3	47.3	47.3	74	39.4	2	6	248	0.00	29.982 
11:25	47.4	47.4	47.4	74	39.5	2	6	248	0.00	29.982 
11:30	47.6	47.6	47.6	74	39.7	2	7	248	0.00	29.975 
11:35	47.7	47.7	47.7	73	39.5	3	9	248	0.00	29.975 
11:40	47.9	47.9	47.9	73	39.7	2	5	248	0.00	29.975 
11:45	48.0	48.0	48.0	73	39.8	3	9	248	0.00	29.972 
11:50	48.2	48.2	48.2	73	40.0	3	7	248	0.00	29.972 
11:55	48.5	48.5	48.5	72	39.9	2	5	248	0.00	29.972 
12:00	48.6	48.6	48.6	72	40.0	2	7	248	0.00	29.970 
12:05	48.8	48.8	48.8	71	39.8	3	7	248	0.00	29.970 
12:10	48.9	47.6	48.9	71	39.9	4	10	248	0.00	29.970 
12:15	49.1	49.1	49.1	71	40.1	3	7	270	0.00	29.970 
12:20	49.2	47.9	49.2	69	39.5	4	9	248	0.00	29.970 
12:25	49.4	49.4	49.4	70	40.0	3	6	248	0.00	29.970 
12:30	49.5	49.5	49.5	70	40.1	3	9	248	0.00	29.967 
12:35	49.6	49.6	49.6	69	39.9	3	9	248	0.00	29.967 
12:40	49.8	49.8	49.8	69	40.0	3	8	248	0.00	29.967 
12:45	50.1	50.1	50.1	68	40.0	3	6	248	0.00	29.958 
12:50	50.4	50.4	50.4	68	40.2	3	6	248	0.00	29.958 
12:55	50.7	50.7	50.7	66	39.8	4	10	248	0.00	29.958 
13:00	50.8	50.8	50.8	65	39.5	4	11	248	0.00	29.950 
13:05	51.1	51.1	51.1	65	39.7	4	9	248	0.00	29.950 
13:10	51.3	51.3	51.3	65	39.9	5	11	248	0.00	29.950 
13:15	51.6	51.6	51.6	65	40.2	5	10	248	0.00	29.947 
13:20	52.0	52.0	52.0	65	40.6	3	9	270	0.00	29.947 
13:25	52.3	52.3	52.3	64	40.5	4	11	248	0.00	29.947 
13:30	52.3	52.3	52.3	63	40.1	5	11	270	0.00	29.952 
13:35	52.0	52.0	52.0	64	40.2	4	7	248	0.00	29.952 
13:40	51.7	51.7	51.7	63	39.5	3	9	248	0.00	29.952 
13:45	51.3	51.3	51.3	65	39.9	3	11	292	0.00	29.952 
13:50	51.0	51.0	51.0	65	39.7	4	10	292	0.00	29.952 
13:55	50.7	50.7	50.7	66	39.8	4	9	248	0.00	29.952 
14:00	50.5	50.5	50.5	67	40.0	4	10	248	0.00	29.951 
14:05	50.4	50.4	50.4	67	39.9	5	10	248	0.00	29.951 
14:10	50.4	50.4	50.4	67	39.9	4	9	270	0.00	29.951 
14:15	50.2	50.2	50.2	68	40.1	4	10	248	0.00	29.954 
14:20	50.2	50.2	50.2	67	39.7	5	10	248	0.00	29.954 
14:25	50.2	50.2	50.2	68	40.1	4	11	248	0.00	29.954 
14:30	50.4	50.4	50.4	68	40.2	3	10	248	0.00	29.951 
14:35	50.5	50.5	50.5	68	40.3	3	6	248	0.00	29.951 
14:40	50.5	50.5	50.5	68	40.3	3	6	270	0.00	29.951 
14:45	50.5	50.5	50.5	68	40.3	4	12	248	0.00	29.952 
14:50	50.7	50.7	50.7	68	40.5	3	11	248	0.00	29.952 
14:55	50.7	50.7	50.7	68	40.5	3	7	248	0.00	29.952 
15:00	50.8	50.8	50.8	68	40.6	3	9	248	0.00	29.953 
15:05	50.8	50.8	50.8	67	40.2	3	8	270	0.00	29.953 
15:10	50.7	50.7	50.7	67	40.1	3	8	248	0.00	29.953 
15:15	50.7	50.7	50.7	68	40.5	3	10	248	0.00	29.958 
15:20	50.5	50.5	50.5	68	40.3	2	6	270	0.00	29.958 
15:25	50.5	50.5	50.5	68	40.3	3	7	248	0.00	29.958 
15:30	50.4	50.4	50.4	68	40.2	3	8	248	0.00	29.962 
15:35	50.4	50.4	50.4	69	40.6	3	9	248	0.00	29.962 
15:40	50.2	50.2	50.2	69	40.4	3	7	248	0.00	29.962 
15:45	50.2	50.2	50.2	69	40.4	2	5	270	0.00	29.964 
15:50	50.1	50.1	50.1	69	40.3	2	6	270	0.00	29.964 
15:55	50.1	50.1	50.1	69	40.3	2	7	248	0.00	29.964 
16:00	49.9	49.9	49.9	70	40.5	3	7	248	0.00	29.967 
16:05	49.9	49.9	49.9	70	40.5	2	3	248	0.00	29.967 
16:10	49.8	49.8	49.8	70	40.4	1	4	248	0.00	29.967 
16:15	49.8	49.8	49.8	71	40.8	2	5	248	0.00	29.969 
16:20	49.6	49.6	49.6	71	40.6	2	6	248	0.00	29.969 
16:25	49.5	49.5	49.5	71	40.5	1	3	248	0.00	29.969 
16:30	49.4	49.4	49.4	72	40.8	1	3	248	0.00	29.978 
16:35	49.4	49.4	49.4	72	40.8	1	4	248	0.00	29.978 
16:40	49.4	49.4	49.4	72	40.8	2	4	248	0.00	29.978 
16:45	49.2	49.2	49.2	72	40.6	2	5	248	0.00	29.991 
16:50	49.2	49.2	49.2	72	40.6	2	6	248	0.00	29.991 
16:55	49.2	49.2	49.2	73	40.9	1	4	270	0.00	29.991 
17:00	49.1	49.1	49.1	73	40.8	2	5	270	0.00	29.998 
17:05	49.1	49.1	49.1	73	40.8	1	3	248	0.00	29.998 
17:10	49.1	49.1	49.1	73	40.8	1	3	248	0.00	29.998 
17:15	49.1	49.1	49.1	73	40.8	1	4	248	0.00	30.005 
17:20	48.9	48.9	48.9	73	40.6	2	5	248	0.00	30.005 
17:25	49.1	49.1	49.1	73	40.8	2	7	248	0.00	30.005 
17:30	49.1	49.1	49.1	73	40.8	2	6	248	0.00	30.006 
17:35	49.1	49.1	49.1	73	40.8	3	5	248	0.00	30.006 
17:40	49.1	49.1	49.1	73	40.8	2	4	248	0.00	30.006 
17:45	48.9	48.9	48.9	73	40.6	1	4	248	0.00	30.004 
17:50	48.9	48.9	48.9	73	40.6	1	4	248	0.00	30.004 
17:55	48.9	48.9	48.9	73	40.6	1	4	248	0.00	30.004 
18:00	48.9	48.9	48.9	74	41.0	1	3	248	0.00	30.010 
18:05	48.8	48.8	48.8	74	40.9	1	4	248	0.00	30.010 
18:10	48.8	48.8	48.8	74	40.9	1	4	248	0.00	30.010 
18:15	48.8	48.8	48.8	74	40.9	1	3	248	0.00	30.013 
18:20	48.8	48.8	48.8	74	40.9	1	3	248	0.00	30.013 
18:25	48.8	48.8	48.8	74	40.9	1	3	248	0.00	30.013 
18:30	48.8	48.8	48.8	75	41.2	1	5	270	0.00	30.021 
18:35	48.8	48.8	48.8	75	41.2	1	3	270	0.00	30.021 
18:40	48.6	48.6	48.6	75	41.0	1	3	270	0.00	30.021 
18:45	48.6	48.6	48.6	75	41.0	2	4	248	0.00	30.029 
18:50	48.6	48.6	48.6	75	41.0	1	3	270	0.00	30.029 
18:55	48.6	48.6	48.6	76	41.4	1	3	270	0.00	30.029 
19:00	48.6	48.6	48.6	76	41.4	1	3	270	0.00	30.031 
19:05	48.5	48.5	48.5	76	41.3	0	1	270	0.00	30.031 
19:10	48.5	48.5	48.5	76	41.3	1	2	270	0.00	30.031 
19:15	48.5	48.5	48.5	77	41.6	1	4	270	0.00	30.041 
19:20	48.5	48.5	48.5	77	41.6	1	3	270	0.00	30.041 
19:25	48.0	48.0	48.0	74	40.1	1	4	0	0.00	30.041 
19:30	47.6	47.6	47.6	73	39.4	1	3	315	0.00	30.045 
19:35	47.1	47.1	47.1	72	38.5	1	4	270	0.00	30.045 
19:40	46.8	46.8	46.8	72	38.3	2	4	270	0.00	30.045 
19:45	46.5	46.5	46.5	73	38.3	2	5	338	0.00	30.052 
19:50	46.2	46.2	46.2	73	38.0	1	2	338	0.00	30.052 
19:55	46.1	46.1	46.1	74	38.3	1	2	315	0.00	30.052 
20:00	46.0	46.0	46.0	75	38.5	1	2	338	0.00	30.059 
20:05	45.8	45.8	45.8	75	38.3	0	3	338	0.00	30.059 
20:10	45.7	45.7	45.7	76	38.6	0	1	338	0.00	30.059 
20:15	45.5	45.5	45.5	76	38.4	1	3	338	0.00	30.064 
20:20	45.4	45.4	45.4	76	38.3	1	4	270	0.00	30.064 
20:25	45.2	45.2	45.2	76	38.1	1	4	270	0.00	30.064 
20:30	44.8	44.8	44.8	76	37.7	1	4	292	0.00	30.078 
20:35	44.6	44.6	44.6	76	37.5	1	3	315	0.00	30.078 
20:40	44.5	44.5	44.5	76	37.4	0	3	270	0.00	30.078 
20:45	44.3	44.3	44.3	77	37.6	0	1	270	0.00	30.080 
20:50	44.2	44.2	44.2	77	37.5	0	2	270	0.00	30.080 
20:55	44.1	44.1	44.1	77	37.4	0	2	270	0.00	30.080 
21:00	43.9	43.9	43.9	78	37.5	1	3	270	0.00	30.090 
21:05	43.8	43.8	43.8	76	36.7	1	4	338	0.00	30.090 
21:10	43.6	43.6	43.6	76	36.5	1	4	338	0.00	30.090 
21:15	43.5	43.5	43.5	76	36.4	1	3	270	0.00	30.094 
21:20	43.3	43.3	43.3	75	35.9	1	4	0	0.00	30.094 
21:25	43.3	43.3	43.3	75	35.9	0	3	338	0.00	30.094 
21:30	43.2	43.2	43.2	75	35.8	1	3	338	0.00	30.098 
21:35	43.1	43.1	43.1	75	35.7	2	6	270	0.00	30.098 
21:40	43.1	43.1	43.1	75	35.7	1	4	270	0.00	30.098 
21:45	42.9	42.9	42.9	75	35.5	0	1	270	0.00	30.099 
21:50	42.8	42.8	42.8	75	35.4	1	4	0	0.00	30.099 
21:55	42.8	42.8	42.8	75	35.4	1	5	0	0.00	30.099 
22:00	42.6	42.6	42.6	75	35.2	0	3	292	0.00	30.111 
22:05	42.6	42.6	42.6	75	35.2	0	3	315	0.00	30.111 
22:10	42.5	42.5	42.5	75	35.1	1	3	315	0.00	30.111 
22:15	42.5	42.5	42.5	75	35.1	1	4	315	0.00	30.107 
22:20	42.3	42.3	42.3	75	35.0	0	2	338	0.00	30.107 
22:25	42.3	42.3	42.3	76	35.3	0	3	338	0.00	30.107 
22:30	42.3	42.3	42.3	76	35.3	0	2	315	0.00	30.111 
22:35	42.2	42.2	42.2	76	35.2	0	3	315	0.00	30.111 
22:40	42.1	42.1	42.1	77	35.4	1	3	315	0.00	30.111 
22:45	42.1	42.1	42.1	77	35.4	0	5	315	0.00	30.109 
22:50	41.9	41.9	41.9	77	35.2	1	3	270	0.00	30.109 
22:55	41.9	41.9	41.9	77	35.2	0	2	22	0.00	30.109 
23:00	41.8	41.8	41.8	77	35.1	0	4	270	0.00	30.112 
23:05	41.8	41.8	41.8	77	35.1	0	3	0	0.00	30.112 
23:10	41.8	41.8	41.8	78	35.5	0	2	0	0.00	30.112 
23:15	41.6	41.6	41.6	78	35.3	0	2	0	0.00	30.110 
23:20	41.6	41.6	41.6	78	35.3	0	1	0	0.00	30.110 
23:25	41.6	41.6	41.6	78	35.3	0	2	0	0.00	30.110 
23:30	41.5	41.5	41.5	79	35.5	0	1	0	0.00	30.110 
23:35	41.5	41.5	41.5	79	35.5	0	1	0	0.00	30.110 
23:40	41.5	41.5	41.5	79	35.5	0	2	0	0.00	30.110 
23:45	41.3	41.3	41.3	79	35.3	0	1	0	0.00	30.109 
23:50	41.1	41.1	41.1	80	35.4	2	8	135	0.00	30.109 
23:55	40.2	40.2	40.2	81	34.8	2	9	112	0.00	30.109 

CoCoRaHS
IN-AL-39
A2 Web Hosting
Creative Commons License
GoDaddy
search engine by freefind advanced

loaded 2018-11-20 09:34:08 • last modified 2010-11-18 10:43:29
Privacy PolicyDisclaimer
• wx.awcolley.com is powered by PmWiki v.2002016 •
• all content (unless otherwise noted) © 2018 A W Colley